Oakesdale, WA (99158)

11:06 AM PDT on September 02, 2014 (GMT -0700)
KWAGARFI3 | Change Station
CLOSE
Current Station
Personal Weather Station
Location: Garfield, WA
Elevation: 2520 ft
Nearby Weather Stations

Elev 2520 ft 47.01 °N, 117.15 °W | Updated 1 minute ago

Partly Cloudy
Partly Cloudy
67.4 °F
Feels Like 67.4 °F
N
3.0
Wind Variable Wind from SSW
Gusts 7.0 mph

Today
High -- | Low -- °F
--% Chance of Precip.
Yesterday
High -- | Low -- °F
Precip. -- in
6:09 AM 7:26 PM
First Quarter, 53% visible
Pressure 29.86 in
Visibility 10.0 miles
Clouds Clear
Dew Point 42 °F
Humidity 40%
Rainfall 0.00 in
Snow Depth Not available.
UV 6 out of 12
Pollen 6.40 out of 12
Air Quality Not available.
Flu Activity Not available.
METAR KPUW 021753Z AUTO 24009KT 10SM CLR 21/07 A2988 RMK AO2 SLP111 T02060072 10206 20100 58014

More Conditions Fewer Conditions

Pressure 29.86 in
Visibility 10.0 miles
Clouds Clear
Dew Point 42 °F
Humidity 40%
Rainfall 0.00 in
Snow Depth Not available.
UV 6 out of 12
Pollen 6.40 out of 12
Air Quality Not available.
Flu Activity Not available.
METAR KPUW 021753Z AUTO 24009KT 10SM CLR 21/07 A2988 RMK AO2 SLP111 T02060072 10206 20100 58014

More Conditions Fewer Conditions

10-Day Weather Forecast

Almanac

Astronomy

Sep. 02, 2014 Rise Set
Actual Time 6:09 AM PDT 7:26 PM PDT
Civil Twilight 5:38 AM PDT 7:58 PM PDT
Nautical Twilight 4:59 AM PDT 8:35 PM PDT
Astronomical Twilight 4:19 AM PDT 9:16 PM PDT
Moon 2:26 PM PDT 11:56 PM PDT
Length of Visible Light 14h 19m
Length of Day
13h 16m
Tomorrow will be 3m 16s shorter.
First Quarter, 53% of the Moon is Illuminated
Today
First Quarter
Sep 8
Full
Sep 15
Last Quarter
Sep 24
New
Oct 1
First Quarter

Today's Extremes

State Highs State Lows

Community

WunderPhotos

Upload Photos

1,749,724 photos uploaded!

WunderBlogs® & News

Nearby

Snow Depth

Station Depth Elevation
Quartz Peak 1 in 4700 ft
Sourdough Gulch 0 in 4000 ft
Bunchgrass Meadow 0 in 5000 ft
Moses Mountain 1 in 5300 ft
Sentinel Butte 0 in 4920 ft

Earthquake Activity

City Distance Mag. Time & Date
No recent earthquake activity has been reported nearby.
Minimum magnitude displayed is 2.5.

Coastal Water Temperatures

Place Temperature
No Stations Reporting

Nearby Weather Stations